This is the latest recevied weather packets stored in our database for station/object SR5NLK-1. If no packets are shown the sender has not sent any weather packets the latest 1 day(s).
| Time | Temp. | Humidity | Pressure | Rain* | Wind** | Luminosity | Snow |
|---|---|---|---|---|---|---|---|
| 1777965461 | 33.33° C | 31% | 1064.8 hPa | 0 mm | 0.89 m/s, 180° | - | - |
| 1777965453 | 33.33° C | 31% | 1064.8 hPa | 0 mm | 0.89 m/s, 180° | - | - |
| 1777965332 | 33.89° C | 31% | 974.6 hPa | 0 mm | 1.34 m/s, 135° | - | - |
| 1777965153 | 33.89° C | 32% | 1052.2 hPa | 0 mm | 0.45 m/s, 22° | - | - |
| 1777964853 | 33.89° C | 32% | 1036.7 hPa | 0 mm | 1.34 m/s, 90° | - | - |
| 1777964553 | 32.78° C | 34% | 1058.4 hPa | 0 mm | 0.45 m/s, 157° | - | - |
| 1777964253 | 32.78° C | 34% | 1020.1 hPa | 0 mm | 0.45 m/s, 0° | - | - |
| 1777963953 | 31.67° C | 36% | 1011.1 hPa | 0 mm | 0.45 m/s, 67° | - | - |
| 1777963653 | 30.56° C | 38% | 1010.4 hPa | 0 mm | 0.89 m/s, 67° | - | - |
| 1777963200 | 29.44° C | 40% | 1014.8 hPa | 0 mm | 0.89 m/s, 90° | - | - |
| 1777962899 | 28.89° C | 40% | 1088.4 hPa | 0 mm | 0.89 m/s, 112° | - | - |
| 1777962599 | 27.78° C | 41% | 1033.4 hPa | 0 mm | 1.34 m/s, 45° | - | - |
| 1777962299 | 27.22° C | 43% | 1090.6 hPa | 0 mm | 0 m/s | - | - |
| 1777962000 | 26.67° C | 45% | 1081.5 hPa | 0 mm | 0.89 m/s, 67° | - | - |
| 1777961699 | 26.11° C | 46% | 996.7 hPa | 0 mm | 2.24 m/s, 90° | - | - |
| 1777961519 | 25.56° C | 47% | 1042.8 hPa | 0 mm | 0.45 m/s, 112° | - | - |
| 1777961400 | 25.56° C | 48% | 1001 hPa | 0 mm | 1.34 m/s, 0° | - | - |
| 1777961100 | 24.44° C | 51% | 1004.1 hPa | 0 mm | 0.89 m/s, 45° | - | - |
| 1777960800 | 22.78° C | 53% | 976.4 hPa | 0 mm | 0 m/s | - | - |
| 1777960500 | 21.67° C | 54% | 1053 hPa | 0 mm | 0.89 m/s, 0° | - | - |
| 1777960199 | 21.67° C | 54% | 1056 hPa | 0 mm | 0.89 m/s, 45° | - | - |
| 1777959899 | 21.11° C | 57% | 1042.5 hPa | 0 mm | 0 m/s | - | - |
| 1777959600 | 20.56° C | 56% | 1036.6 hPa | 0 mm | 0 m/s | - | - |
| 1777959539 | 20.56° C | 55% | 1044.9 hPa | 0 mm | 0.89 m/s, 90° | - | - |
| 1777959300 | 20.56° C | 54% | 1050.3 hPa | 0 mm | 1.34 m/s, 67° | - | - |
* Rain latest hour (hover to see other rain measurements)
** Current wind speed in m/s (hover to see current wind gust speed)